ADDS METAR Data INFO
IDs: Format: Raw Decoded Include TAF

Data at: 0218 UTC 18 Jan 2018

PAEN 180153Z 03003KT 10SM CLR 01/M01 A2937 RMK AO2 SLP948 T00111011
PAEN 180053Z 09004KT 10SM CLR 04/M01 A2937 RMK AO2 SLP946 T00391006
PAEN 172353Z 09006KT 10SM BKN120 04/00 A2936 RMK AO2 SLP943 T00440000 10044 20028 51011
PAEN 172253Z 07005KT 10SM BKN120 04/00 A2935 RMK AO2 SLP940 T00390000
PAEN 172153Z 04008KT 10SM OVC080 03/00 A2934 RMK AO2 SLP936 T00330000
PAEN 172053Z 04010KT 10SM OVC075 03/00 A2932 RMK AO2 SLP931 T00280000 51018
PAEN 171953Z 04010KT 10SM OVC090 03/00 A2930 RMK AO2 SLP925 T00280000
PAEN 171853Z 05009KT 10SM BKN080 OVC095 03/00 A2929 RMK AO2 SLP920 T00330000
PAEN 171753Z 05008KT 10SM CLR 03/00 A2927 RMK AO2 SLP913 T00280000 10039 20022 53013
PAEN 171653Z 04010KT 10SM CLR 03/01 A2925 RMK AO2 SLP906 T00330006
PAEN 171553Z 04010KT 10SM BKN110 03/01 A2924 RMK AO2 SLP903 T00330006
PAEN 171453Z AUTO 04013KT 10SM CLR 03/01 A2923 RMK AO2 SLP901 T00330006 53002 TSNO
PAEN 171353Z AUTO 03013KT 10SM BKN080 03/01 A2922 RMK AO2 SLP898 T00330006 TSNO
PAEN 171253Z AUTO 01010KT 10SM BKN070 OVC085 03/00 A2922 RMK AO2 SLP896 T00280000 TSNO
PAEN 171153Z AUTO 03010KT 10SM SCT060 OVC075 03/00 A2922 RMK AO2 SLP898 70001 T00280000 10050 20028 51013 TSNO
PAEN 171053Z AUTO 36011KT 10SM BKN065 OVC080 03/01 A2921 RMK AO2 SLP894 T00330006 TSNO
PAEN 170953Z AUTO 02015KT 10SM BKN080 04/01 A2921 RMK SLP892 T00440006 TSNO VIA AUTODIAL
PAEN 170853Z AUTO 03016KT 10SM BKN070 OVC085 04/01 A2919 RMK AO2 SLP886 T00440011 400501056 53007 TSNO
PAEN 170753Z AUTO 03017KT 10SM BKN070 04/01 A2917 RMK AO2 SLP881 T00440011 TSNO
PAEN 170653Z AUTO 04016KT 10SM CLR 04/01 A2917 RMK AO2 SLP880 T00440011 TSNO
PAEN 170553Z AUTO 02014KT 10SM SCT060 03/01 A2917 RMK AO2 SLP878 T00330006 10044 20028 57001 TSNO
PAEN 170453Z 03018KT 10SM CLR 04/01 A2917 RMK AO2 SLP879 T00390006
PAEN 170353Z 02019KT 10SM CLR 04/01 A2917 RMK AO2 SLP878 T00440006
PAEN 170253Z 02017KT 10SM CLR 03/01 A2917 RMK AO2 SLP879 T00330006 56004
PAEN 170153Z 02014KT 10SM CLR 03/01 A2917 RMK AO2 SLP880 T00330006
PAEN 170053Z 02016KT 10SM CLR 03/01 A2917 RMK AO2 SLP879 T00280006
PAEN 162353Z 02017KT 10SM CLR 03/01 A2918 RMK AO2 SLP883 T00330011 10039 20006 58006
PAEN 162253Z 03016KT 10SM CLR 04/01 A2919 RMK AO2 SLP887 T00390011
PAEN 162153Z 01011KT 10SM CLR 02/00 A2920 RMK AO2 SLP889 T00220000
PAEN 162053Z 02014KT 10SM CLR 02/M01 A2920 RMK AO2 SLP889 T00171006 50000
PAEN 161953Z 03017KT 10SM CLR 02/M01 A2920 RMK AO2 SLP890 T00171011
PAEN 161853Z 36013KT 10SM FEW045 02/M01 A2919 RMK AO2 SLP888 T00171011
PAEN 161753Z 05010KT 10SM BKN050 OVC070 01/M02 A2920 RMK AO2 SLP890 60001 I6000 T00061017 10011 21011 55010 $
PAEN 161653Z 03012KT 10SM SCT070 BKN090 01/M02 A2918 RMK AO2 SLP884 T00111017 $
PAEN 161553Z 02007KT 10SM FEW080 BKN110 00/M02 A2921 RMK AO2 SLP893 T00001017 $
PAEN 161453Z AUTO 06006KT 10SM SCT055 BKN080 OVC110 M01/M02 A2923 RMK AO2 SLP900 60001 I3000 T10061017 56041 TSNO $